createdAt,value
2023-03-12T00:00:56.154Z,1006.56
2023-03-12T00:01:56.191Z,1006.55
2023-03-12T00:02:56.216Z,1006.57
2023-03-12T00:03:56.287Z,1006.54
2023-03-12T00:04:56.244Z,1006.57
2023-03-12T00:05:56.261Z,1006.56
2023-03-12T00:06:56.358Z,1006.57
2023-03-12T00:07:56.309Z,1006.54
2023-03-12T00:08:56.506Z,1006.52
2023-03-12T00:09:56.350Z,1006.55
2023-03-12T00:10:56.367Z,1006.54
2023-03-12T00:11:56.403Z,1006.55
2023-03-12T00:12:56.407Z,1006.54
2023-03-12T00:13:56.431Z,1006.54
2023-03-12T00:14:56.453Z,1006.54
2023-03-12T00:15:56.522Z,1006.48
2023-03-12T00:16:56.492Z,1006.52
2023-03-12T00:17:56.515Z,1006.49
2023-03-12T00:18:56.561Z,1006.52
2023-03-12T00:19:56.567Z,1006.54
2023-03-12T00:20:56.576Z,1006.46
2023-03-12T00:21:56.602Z,1006.43
2023-03-12T00:22:56.636Z,1006.50
2023-03-12T00:23:56.641Z,1006.48
2023-03-12T00:24:56.667Z,1006.44
2023-03-12T00:25:56.684Z,1006.47
2023-03-12T00:26:56.705Z,1006.44
2023-03-12T00:27:56.726Z,1006.43
2023-03-12T00:28:56.743Z,1006.44
2023-03-12T00:29:56.771Z,1006.45
2023-03-12T00:30:57.306Z,1006.44
2023-03-12T00:31:56.811Z,1006.41
2023-03-12T00:32:56.833Z,1006.41
2023-03-12T00:33:56.861Z,1006.40
2023-03-12T00:34:56.870Z,1006.37
2023-03-12T00:35:56.924Z,1006.35
2023-03-12T00:36:56.921Z,1006.37
2023-03-12T00:37:56.933Z,1006.39
2023-03-12T00:38:56.979Z,1006.36
2023-03-12T00:39:56.981Z,1006.40
2023-03-12T00:40:56.997Z,1006.34
2023-03-12T00:41:57.021Z,1006.34
2023-03-12T00:42:57.036Z,1006.38
2023-03-12T00:43:57.062Z,1006.34
2023-03-12T00:44:57.080Z,1006.36
2023-03-12T00:45:57.101Z,1006.37
2023-03-12T00:46:57.198Z,1006.32
2023-03-12T00:47:57.144Z,1006.30
2023-03-12T00:48:57.173Z,1006.27
2023-03-12T00:49:57.186Z,1006.25
2023-03-12T00:50:57.209Z,1006.25
2023-03-12T00:51:57.228Z,1006.23
2023-03-12T00:52:57.249Z,1006.27
2023-03-12T00:53:57.279Z,1006.28
2023-03-12T00:54:57.310Z,1006.25
2023-03-12T00:55:57.315Z,1006.24
2023-03-12T00:56:57.333Z,1006.20
2023-03-12T00:57:57.354Z,1006.23
2023-03-12T00:58:57.377Z,1006.26
2023-03-12T00:59:57.400Z,1006.21
2023-03-12T01:00:57.511Z,1006.24
2023-03-12T01:01:57.440Z,1006.26
2023-03-12T01:02:57.460Z,1006.25
2023-03-12T01:03:57.524Z,1006.20
2023-03-12T01:04:57.503Z,1006.22
2023-03-12T01:05:57.548Z,1006.24
2023-03-12T01:06:57.547Z,1006.27
2023-03-12T01:07:57.574Z,1006.27
2023-03-12T01:08:57.589Z,1006.25
2023-03-12T01:09:57.614Z,1006.26
2023-03-12T01:10:57.660Z,1006.31
2023-03-12T01:11:57.663Z,1006.26
2023-03-12T01:12:57.675Z,1006.31
2023-03-12T01:13:57.698Z,1006.28
2023-03-12T01:14:57.719Z,1006.24
2023-03-12T01:15:57.812Z,1006.27
2023-03-12T01:16:57.763Z,1006.27
2023-03-12T01:17:57.785Z,1006.27
2023-03-12T01:18:57.808Z,1006.26
2023-03-12T01:19:57.827Z,1006.26
2023-03-12T01:20:57.847Z,1006.22
2023-03-12T01:21:57.873Z,1006.19
2023-03-12T01:22:57.889Z,1006.22
2023-03-12T01:23:57.926Z,1006.18
2023-03-12T01:24:57.935Z,1006.14
2023-03-12T01:25:57.958Z,1006.12
2023-03-12T01:26:57.997Z,1006.11
2023-03-12T01:27:58.014Z,1006.16
2023-03-12T01:28:58.021Z,1006.07
2023-03-12T01:29:58.042Z,1006.05
2023-03-12T01:30:58.063Z,1006.01
2023-03-12T01:31:58.090Z,1006.01
2023-03-12T01:32:58.104Z,1005.97
2023-03-12T01:33:58.126Z,1005.95
2023-03-12T01:34:58.148Z,1005.97
2023-03-12T01:35:58.342Z,1005.91
2023-03-12T01:36:58.190Z,1005.95
2023-03-12T01:37:58.219Z,1005.88
2023-03-12T01:38:58.229Z,1005.87
2023-03-12T01:39:58.262Z,1005.91
2023-03-12T01:40:58.272Z,1005.88
2023-03-12T01:41:58.296Z,1005.85
2023-03-12T01:42:58.420Z,1005.84
2023-03-12T01:43:58.344Z,1005.84
2023-03-12T01:44:58.357Z,1005.83
2023-03-12T01:45:58.443Z,1005.84
2023-03-12T01:46:58.398Z,1005.84
2023-03-12T01:47:58.423Z,1005.84
2023-03-12T01:48:58.438Z,1005.82
2023-03-12T01:49:58.462Z,1005.79
2023-03-12T01:50:58.494Z,1005.82
2023-03-12T01:51:58.504Z,1005.87
2023-03-12T01:52:58.524Z,1005.77
2023-03-12T01:53:58.546Z,1005.80
2023-03-12T01:54:58.569Z,1005.82
2023-03-12T01:55:58.592Z,1005.77
2023-03-12T01:56:58.608Z,1005.78
2023-03-12T01:57:58.652Z,1005.84
2023-03-12T01:58:58.673Z,1005.75
2023-03-12T01:59:58.673Z,1005.73
2023-03-12T02:00:58.753Z,1005.71
2023-03-12T02:01:58.717Z,1005.72
2023-03-12T02:02:58.734Z,1005.72
2023-03-12T02:03:58.881Z,1005.72
2023-03-12T02:04:58.786Z,1005.72
2023-03-12T02:05:58.800Z,1005.69
2023-03-12T02:06:58.823Z,1005.64
2023-03-12T02:07:58.849Z,1005.67
2023-03-12T02:08:58.862Z,1005.62
2023-03-12T02:09:58.884Z,1005.57
2023-03-12T02:10:58.904Z,1005.47
2023-03-12T02:11:58.929Z,1005.43
2023-03-12T02:12:58.953Z,1005.45
2023-03-12T02:13:58.976Z,1005.44
2023-03-12T02:14:59.018Z,1005.37
2023-03-12T02:15:59.013Z,1005.37
2023-03-12T02:16:59.033Z,1005.34
2023-03-12T02:17:59.101Z,1005.38
2023-03-12T02:18:59.076Z,1005.39
2023-03-12T02:19:59.102Z,1005.37
2023-03-12T02:20:59.124Z,1005.38
2023-03-12T02:21:59.140Z,1005.38
2023-03-12T02:22:59.160Z,1005.36
2023-03-12T02:23:59.189Z,1005.36
2023-03-12T02:24:59.202Z,1005.31
2023-03-12T02:25:59.228Z,1005.36
2023-03-12T02:26:59.249Z,1005.30
2023-03-12T02:27:59.267Z,1005.31
2023-03-12T02:28:59.287Z,1005.26
2023-03-12T02:29:59.310Z,1005.25
2023-03-12T02:30:59.367Z,1005.29
2023-03-12T02:31:59.372Z,1005.27
2023-03-12T02:32:59.442Z,1005.28
2023-03-12T02:33:59.394Z,1005.29
2023-03-12T02:34:59.414Z,1005.26
2023-03-12T02:35:59.461Z,1005.29
2023-03-12T02:36:59.457Z,1005.28
2023-03-12T02:37:59.481Z,1005.26
2023-03-12T02:38:59.505Z,1005.27
2023-03-12T02:39:59.523Z,1005.23
2023-03-12T02:40:59.543Z,1005.23
2023-03-12T02:41:59.562Z,1005.21
2023-03-12T02:42:59.587Z,1005.27
2023-03-12T02:43:59.610Z,1005.25
2023-03-12T02:44:59.627Z,1005.27
2023-03-12T02:45:59.729Z,1005.31
2023-03-12T02:46:59.689Z,1005.32
2023-03-12T02:47:59.692Z,1005.27
2023-03-12T02:48:59.710Z,1005.29
2023-03-12T02:49:59.737Z,1005.25
2023-03-12T02:50:59.765Z,1005.26
2023-03-12T02:51:59.778Z,1005.19
2023-03-12T02:52:59.807Z,1005.23
2023-03-12T02:53:59.830Z,1005.26
2023-03-12T02:54:59.839Z,1005.29
2023-03-12T02:55:59.864Z,1005.26
2023-03-12T02:56:59.887Z,1005.24
2023-03-12T02:57:59.905Z,1005.26
2023-03-12T02:59:01.473Z,1005.31
2023-03-12T02:59:59.950Z,1005.27
2023-03-12T03:01:00.018Z,1005.22
2023-03-12T03:02:00.002Z,1005.23
2023-03-12T03:03:00.046Z,1005.24
2023-03-12T03:04:00.085Z,1005.24
2023-03-12T03:05:00.053Z,1005.25
2023-03-12T03:06:00.106Z,1005.27
2023-03-12T03:07:00.112Z,1005.29
2023-03-12T03:08:00.136Z,1005.32
2023-03-12T03:09:00.157Z,1005.29
2023-03-12T03:10:00.161Z,1005.21
2023-03-12T03:11:00.183Z,1005.28
2023-03-12T03:12:00.206Z,1005.24
2023-03-12T03:13:00.225Z,1005.22
2023-03-12T03:14:00.246Z,1005.19
2023-03-12T03:15:00.277Z,1005.21
2023-03-12T03:16:00.295Z,1005.10
2023-03-12T03:17:00.313Z,1005.09
2023-03-12T03:18:00.329Z,1005.14
2023-03-12T03:19:00.374Z,1005.13
2023-03-12T03:20:00.386Z,1005.13
2023-03-12T03:21:00.397Z,1005.14
2023-03-12T03:22:00.422Z,1005.15
2023-03-12T03:23:00.441Z,1005.10
2023-03-12T03:24:00.461Z,1005.15
2023-03-12T03:25:00.483Z,1005.12
2023-03-12T03:26:00.517Z,1005.17
2023-03-12T03:27:00.530Z,1005.15
2023-03-12T03:28:00.557Z,1005.14
2023-03-12T03:29:00.571Z,1005.14
2023-03-12T03:30:00.596Z,1005.09
2023-03-12T03:31:00.714Z,1004.98
2023-03-12T03:32:00.640Z,1004.95
2023-03-12T03:33:00.657Z,1004.89
2023-03-12T03:34:00.675Z,1004.84
2023-03-12T03:35:00.718Z,1004.86
2023-03-12T03:36:00.788Z,1004.88
2023-03-12T03:37:00.746Z,1004.86
2023-03-12T03:38:00.759Z,1004.91
2023-03-12T03:39:00.786Z,1004.95
2023-03-12T03:40:00.813Z,1004.89
2023-03-12T03:41:00.827Z,1004.85
2023-03-12T03:42:00.846Z,1004.83
2023-03-12T03:43:00.869Z,1004.86
2023-03-12T03:44:00.889Z,1004.84
2023-03-12T03:45:00.930Z,1004.86
2023-03-12T03:46:00.994Z,1004.95
2023-03-12T03:47:00.954Z,1004.95
2023-03-12T03:48:00.981Z,1005.00
2023-03-12T03:49:01.018Z,1005.03
2023-03-12T03:50:01.019Z,1005.00
2023-03-12T03:51:01.077Z,1005.04
2023-03-12T03:52:01.061Z,1005.06
2023-03-12T03:53:01.102Z,1005.03
2023-03-12T03:54:01.108Z,1004.98
2023-03-12T03:55:01.127Z,1004.94
2023-03-12T03:56:01.182Z,1004.89
2023-03-12T03:57:01.219Z,1004.87
2023-03-12T03:58:01.219Z,1004.89
2023-03-12T03:59:01.237Z,1004.95
2023-03-12T04:00:03.625Z,1004.92
2023-03-12T04:01:01.269Z,1004.96
2023-03-12T04:02:01.291Z,1004.94
2023-03-12T04:03:01.351Z,1004.92
2023-03-12T04:04:01.331Z,1004.87
2023-03-12T04:05:01.351Z,1004.93
2023-03-12T04:06:01.399Z,1004.93
2023-03-12T04:07:01.405Z,1004.91
2023-03-12T04:08:01.408Z,1004.87
2023-03-12T04:09:01.425Z,1004.93
2023-03-12T04:10:01.452Z,1004.83
2023-03-12T04:11:01.468Z,1004.83
2023-03-12T04:12:01.488Z,1004.82
2023-03-12T04:13:01.511Z,1004.74
2023-03-12T04:14:01.533Z,1004.79
2023-03-12T04:15:01.556Z,1004.80
2023-03-12T04:16:01.602Z,1004.80
2023-03-12T04:17:01.600Z,1004.79
2023-03-12T04:18:01.625Z,1004.78
2023-03-12T04:19:01.650Z,1004.83
2023-03-12T04:20:01.669Z,1004.80
2023-03-12T04:21:01.681Z,1004.82
2023-03-12T04:22:01.704Z,1004.82
2023-03-12T04:23:01.755Z,1004.89
2023-03-12T04:24:01.746Z,1004.88
2023-03-12T04:25:01.777Z,1004.87
2023-03-12T04:26:01.791Z,1004.81
2023-03-12T04:27:01.809Z,1004.78
2023-03-12T04:28:01.831Z,1004.78
2023-03-12T04:29:01.860Z,1004.83
2023-03-12T04:30:01.907Z,1004.85
2023-03-12T04:31:01.973Z,1004.80
2023-03-12T04:32:01.932Z,1004.78
2023-03-12T04:33:01.939Z,1004.75
2023-03-12T04:34:01.962Z,1004.72
2023-03-12T04:35:01.982Z,1004.68
2023-03-12T04:36:02.057Z,1004.73
2023-03-12T04:37:02.025Z,1004.69
2023-03-12T04:38:02.051Z,1004.68
2023-03-12T04:39:02.110Z,1004.67
2023-03-12T04:40:02.097Z,1004.66
2023-03-12T04:41:02.120Z,1004.67
2023-03-12T04:42:02.136Z,1004.70
2023-03-12T04:43:02.157Z,1004.69
2023-03-12T04:44:02.177Z,1004.73
2023-03-12T04:45:02.204Z,1004.75
2023-03-12T04:46:02.220Z,1004.72
2023-03-12T04:47:02.324Z,1004.71
2023-03-12T04:48:02.265Z,1004.72
2023-03-12T04:49:02.288Z,1004.75
2023-03-12T04:50:02.307Z,1004.72
2023-03-12T04:51:02.331Z,1004.67
2023-03-12T04:52:02.352Z,1004.72
2023-03-12T04:53:02.406Z,1004.67
2023-03-12T04:54:02.394Z,1004.70
2023-03-12T04:55:02.436Z,1004.67
2023-03-12T04:56:02.443Z,1004.67
2023-03-12T04:57:02.462Z,1004.73
2023-03-12T04:58:02.483Z,1004.70
2023-03-12T04:59:02.507Z,1004.70
2023-03-12T05:00:02.530Z,1004.72
2023-03-12T05:01:02.550Z,1004.70
2023-03-12T05:02:02.569Z,1004.69
2023-03-12T05:03:02.617Z,1004.68
2023-03-12T05:04:02.630Z,1004.63
2023-03-12T05:05:02.655Z,1004.67
2023-03-12T05:06:02.656Z,1004.64
2023-03-12T05:07:02.679Z,1004.69
2023-03-12T05:08:02.702Z,1004.57
2023-03-12T05:09:02.726Z,1004.57
2023-03-12T05:10:02.753Z,1004.62
2023-03-12T05:11:02.789Z,1004.63
2023-03-12T05:12:02.783Z,1004.62
2023-03-12T05:13:02.814Z,1004.63
2023-03-12T05:14:02.836Z,1004.62
2023-03-12T05:15:02.855Z,1004.64
2023-03-12T05:16:02.921Z,1004.58
2023-03-12T05:17:02.898Z,1004.57
2023-03-12T05:18:02.918Z,1004.61
2023-03-12T05:19:02.936Z,1004.51
2023-03-12T05:20:02.962Z,1004.48
2023-03-12T05:21:02.978Z,1004.46
2023-03-12T05:22:02.997Z,1004.43
2023-03-12T05:23:03.020Z,1004.54
2023-03-12T05:24:03.044Z,1004.46
2023-03-12T05:25:03.061Z,1004.47
2023-03-12T05:26:03.082Z,1004.41
2023-03-12T05:27:03.127Z,1004.35
2023-03-12T05:28:03.125Z,1004.41
2023-03-12T05:29:03.149Z,1004.39
2023-03-12T05:30:03.168Z,1004.44
2023-03-12T05:31:03.190Z,1004.42
2023-03-12T05:32:03.212Z,1004.43
2023-03-12T05:33:03.261Z,1004.35
2023-03-12T05:34:03.254Z,1004.31
2023-03-12T05:35:03.272Z,1004.30
2023-03-12T05:36:03.397Z,1004.30
2023-03-12T05:37:03.315Z,1004.32
2023-03-12T05:38:03.338Z,1004.30
2023-03-12T05:39:03.358Z,1004.24
2023-03-12T05:40:03.377Z,1004.22
2023-03-12T05:41:03.400Z,1004.24
2023-03-12T05:42:03.419Z,1004.18
2023-03-12T05:43:03.474Z,1004.24
2023-03-12T05:44:03.466Z,1004.21
2023-03-12T05:45:03.479Z,1004.18
2023-03-12T05:46:03.555Z,1004.15
2023-03-12T05:47:03.530Z,1004.13
2023-03-12T05:48:03.546Z,1004.15
2023-03-12T05:49:03.566Z,1004.11
2023-03-12T05:50:03.587Z,1004.12
2023-03-12T05:51:03.621Z,1004.16
2023-03-12T05:52:03.629Z,1004.09
2023-03-12T05:53:03.651Z,1004.09
2023-03-12T05:54:03.670Z,1004.13
2023-03-12T05:55:03.697Z,1004.14
2023-03-12T05:56:03.711Z,1004.16
2023-03-12T05:57:03.731Z,1004.16
2023-03-12T05:58:03.752Z,1004.06
2023-03-12T05:59:03.797Z,1004.06
2023-03-12T06:00:03.793Z,1004.02
2023-03-12T06:01:03.817Z,1004.01
2023-03-12T06:02:03.847Z,1003.97
2023-03-12T06:03:03.919Z,1003.94
2023-03-12T06:04:03.891Z,1003.86
2023-03-12T06:05:03.898Z,1003.86
2023-03-12T06:06:03.916Z,1003.94
2023-03-12T06:07:03.940Z,1003.89
2023-03-12T06:08:03.959Z,1003.86
2023-03-12T06:09:04.000Z,1003.82
2023-03-12T06:10:04.002Z,1003.85
2023-03-12T06:11:04.036Z,1003.78
2023-03-12T06:12:04.047Z,1003.79
2023-03-12T06:13:04.072Z,1003.73
2023-03-12T06:14:04.079Z,1003.77
2023-03-12T06:15:04.133Z,1003.76
2023-03-12T06:16:04.131Z,1003.71
2023-03-12T06:17:04.148Z,1003.72
2023-03-12T06:18:04.167Z,1003.78
2023-03-12T06:19:04.192Z,1003.73
2023-03-12T06:20:04.208Z,1003.70
2023-03-12T06:21:04.231Z,1003.73
2023-03-12T06:22:04.275Z,1003.71
2023-03-12T06:23:04.272Z,1003.76
2023-03-12T06:24:04.292Z,1003.73
2023-03-12T06:25:04.314Z,1003.73
2023-03-12T06:26:04.336Z,1003.65
2023-03-12T06:27:04.366Z,1003.67
2023-03-12T06:28:04.377Z,1003.73
2023-03-12T06:29:04.403Z,1003.67
2023-03-12T06:30:04.428Z,1003.69
2023-03-12T06:31:04.516Z,1003.72
2023-03-12T06:32:04.462Z,1003.65
2023-03-12T06:33:04.482Z,1003.68
2023-03-12T06:34:04.501Z,1003.68
2023-03-12T06:35:04.538Z,1003.71
2023-03-12T06:36:04.549Z,1003.70
2023-03-12T06:37:04.566Z,1003.77
2023-03-12T06:38:04.589Z,1003.79
2023-03-12T06:39:04.610Z,1003.76
2023-03-12T06:40:04.629Z,1003.80
2023-03-12T06:41:04.650Z,1003.80
2023-03-12T06:42:04.673Z,1003.80
2023-03-12T06:43:04.695Z,1003.81
2023-03-12T06:44:04.713Z,1003.78
2023-03-12T06:45:04.753Z,1003.82
2023-03-12T06:46:04.785Z,1003.88
2023-03-12T06:47:04.802Z,1003.90
2023-03-12T06:48:04.798Z,1003.88
2023-03-12T06:49:04.819Z,1003.88
2023-03-12T06:50:04.883Z,1003.85
2023-03-12T06:51:04.870Z,1003.83
2023-03-12T06:52:04.881Z,1003.76
2023-03-12T06:53:04.904Z,1003.69
2023-03-12T06:54:04.923Z,1003.75
2023-03-12T06:55:04.948Z,1003.74
2023-03-12T06:56:04.967Z,1003.75
2023-03-12T06:57:04.988Z,1003.78
2023-03-12T06:58:05.007Z,1003.79
2023-03-12T06:59:05.033Z,1003.81
2023-03-12T07:00:05.070Z,1003.80
2023-03-12T07:01:05.077Z,1003.88
2023-03-12T07:02:05.179Z,1003.89
2023-03-12T07:03:05.140Z,1003.85
2023-03-12T07:04:05.145Z,1003.92
2023-03-12T07:05:05.188Z,1003.86
2023-03-12T07:06:05.182Z,1003.87
2023-03-12T07:07:05.220Z,1003.83
2023-03-12T07:08:05.226Z,1003.89
2023-03-12T07:09:05.247Z,1003.89
2023-03-12T07:10:05.271Z,1003.87
2023-03-12T07:11:05.293Z,1003.89
2023-03-12T07:12:05.336Z,1003.86
2023-03-12T07:13:05.343Z,1003.82
2023-03-12T07:14:05.372Z,1003.87
2023-03-12T07:15:05.539Z,1003.91
2023-03-12T07:16:05.477Z,1003.92
2023-03-12T07:17:05.432Z,1003.92
2023-03-12T07:18:05.444Z,1003.97
2023-03-12T07:19:05.529Z,1003.93
2023-03-12T07:20:05.514Z,1003.93
2023-03-12T07:21:05.509Z,1003.88
2023-03-12T07:22:05.535Z,1003.92
2023-03-12T07:23:05.551Z,1003.95
2023-03-12T07:24:05.576Z,1003.93
2023-03-12T07:25:05.596Z,1003.87
2023-03-12T07:26:05.646Z,1003.88
2023-03-12T07:27:05.637Z,1003.87
2023-03-12T07:28:05.660Z,1003.89
2023-03-12T07:29:05.682Z,1003.86
2023-03-12T07:30:05.702Z,1003.81
2023-03-12T07:31:05.782Z,1003.77
2023-03-12T07:32:05.745Z,1003.79
2023-03-12T07:33:05.928Z,1003.75
2023-03-12T07:34:06.005Z,1003.78
2023-03-12T07:35:05.831Z,1003.81
2023-03-12T07:36:06.025Z,1003.82
2023-03-12T07:37:05.850Z,1003.93
2023-03-12T07:38:06.030Z,1003.92
2023-03-12T07:39:05.892Z,1003.86
2023-03-12T07:40:05.951Z,1003.85
2023-03-12T07:41:05.999Z,1003.83
2023-03-12T07:42:05.994Z,1003.86
2023-03-12T07:43:05.977Z,1003.79
2023-03-12T07:44:06.060Z,1003.82
2023-03-12T07:45:06.072Z,1003.77
2023-03-12T07:46:06.041Z,1003.84
2023-03-12T07:47:22.235Z,1003.85
2023-03-12T07:48:06.259Z,1003.84
2023-03-12T07:49:06.113Z,1003.77
2023-03-12T07:50:06.204Z,1003.82
2023-03-12T07:51:06.172Z,1003.81
2023-03-12T07:52:06.245Z,1003.80
2023-03-12T07:53:06.187Z,1003.79
2023-03-12T07:54:06.216Z,1003.78
2023-03-12T07:55:06.282Z,1003.72
2023-03-12T07:56:06.400Z,1003.73
2023-03-12T07:57:06.391Z,1003.73
2023-03-12T07:58:06.396Z,1003.80
2023-03-12T07:59:06.744Z,1003.77
2023-03-12T08:00:06.437Z,1003.78
2023-03-12T08:01:06.428Z,1003.75
2023-03-12T08:02:06.529Z,1003.77
2023-03-12T08:03:06.650Z,1003.80
2023-03-12T08:04:06.661Z,1003.76
2023-03-12T08:05:06.582Z,1003.78
2023-03-12T08:06:06.645Z,1003.72
2023-03-12T08:07:09.157Z,1003.72
2023-03-12T08:08:06.517Z,1003.62
2023-03-12T08:09:06.536Z,1003.65
2023-03-12T08:10:06.612Z,1003.59
2023-03-12T08:11:06.583Z,1003.62
2023-03-12T08:12:06.650Z,1003.67
2023-03-12T08:13:06.694Z,1003.67
2023-03-12T08:14:06.777Z,1003.68
2023-03-12T08:15:06.666Z,1003.73
2023-03-12T08:16:09.358Z,1003.68
2023-03-12T08:17:06.715Z,1003.65
2023-03-12T08:18:06.738Z,1003.69
2023-03-12T08:19:06.752Z,1003.70
2023-03-12T08:20:06.780Z,1003.67
2023-03-12T08:21:06.799Z,1003.71
2023-03-12T08:22:06.822Z,1003.67
2023-03-12T08:23:06.863Z,1003.72
2023-03-12T08:24:06.875Z,1003.75
2023-03-12T08:25:06.893Z,1003.71
2023-03-12T08:26:06.915Z,1003.75
2023-03-12T08:27:06.930Z,1003.77
2023-03-12T08:28:06.953Z,1003.79
2023-03-12T08:29:06.972Z,1003.75
2023-03-12T08:30:07.001Z,1003.73
2023-03-12T08:31:07.021Z,1003.72
2023-03-12T08:32:07.144Z,1003.74
2023-03-12T08:33:07.118Z,1003.72
2023-03-12T08:34:07.085Z,1003.75
2023-03-12T08:35:07.104Z,1003.74
2023-03-12T08:36:07.128Z,1003.76
2023-03-12T08:37:07.156Z,1003.79
2023-03-12T08:38:07.181Z,1003.83
2023-03-12T08:39:07.211Z,1003.81
2023-03-12T08:40:07.225Z,1003.86
2023-03-12T08:41:07.247Z,1003.77
2023-03-12T08:42:07.259Z,1003.79
2023-03-12T08:43:07.280Z,1003.83
2023-03-12T08:44:07.305Z,1003.84
2023-03-12T08:45:07.329Z,1003.83
2023-03-12T08:46:07.389Z,1003.84
2023-03-12T08:47:07.388Z,1003.82
2023-03-12T08:48:07.397Z,1003.81
2023-03-12T08:49:07.415Z,1003.81
2023-03-12T08:50:07.441Z,1003.77
2023-03-12T08:51:07.565Z,1003.75
2023-03-12T08:52:07.486Z,1003.71
2023-03-12T08:53:07.504Z,1003.74
2023-03-12T08:54:07.532Z,1003.75
2023-03-12T08:55:07.589Z,1003.71
2023-03-12T08:56:07.576Z,1003.59
2023-03-12T08:57:07.602Z,1003.64
2023-03-12T08:58:07.620Z,1003.63
2023-03-12T08:59:07.641Z,1003.60
2023-03-12T09:00:07.665Z,1003.58
2023-03-12T09:01:07.689Z,1003.59
2023-03-12T09:02:07.714Z,1003.59
2023-03-12T09:03:07.742Z,1003.63
2023-03-12T09:04:07.785Z,1003.59
2023-03-12T09:05:07.782Z,1003.61
2023-03-12T09:06:07.799Z,1003.52
2023-03-12T09:07:07.827Z,1003.54
2023-03-12T09:08:07.995Z,1003.50
2023-03-12T09:09:07.868Z,1003.49
2023-03-12T09:10:07.889Z,1003.50
2023-03-12T09:11:07.937Z,1003.53
2023-03-12T09:12:07.939Z,1003.46
2023-03-12T09:13:07.954Z,1003.45
2023-03-12T09:15:01.051Z,1003.46
2023-03-12T09:15:08.028Z,1003.46
2023-03-12T09:16:08.024Z,1003.51
2023-03-12T09:17:08.045Z,1003.51
2023-03-12T09:18:08.077Z,1003.57
2023-03-12T09:19:08.089Z,1003.58
2023-03-12T09:20:08.125Z,1003.61
2023-03-12T09:21:08.398Z,1003.52
2023-03-12T09:22:08.169Z,1003.59
2023-03-12T09:23:08.177Z,1003.62
2023-03-12T09:24:08.206Z,1003.59
2023-03-12T09:25:08.219Z,1003.65
2023-03-12T09:26:08.244Z,1003.61
2023-03-12T09:27:08.289Z,1003.65
2023-03-12T09:28:08.291Z,1003.68
2023-03-12T09:29:08.325Z,1003.67
2023-03-12T09:30:08.342Z,1003.65
2023-03-12T09:31:08.428Z,1003.71
2023-03-12T09:32:08.379Z,1003.71
2023-03-12T09:33:08.397Z,1003.75
2023-03-12T09:34:08.426Z,1003.67
2023-03-12T09:35:08.451Z,1003.67
2023-03-12T09:36:08.545Z,1003.70
2023-03-12T09:37:08.489Z,1003.68
2023-03-12T09:38:08.514Z,1003.64
2023-03-12T09:39:08.532Z,1003.71
2023-03-12T09:40:08.557Z,1003.71
2023-03-12T09:41:08.582Z,1003.69
2023-03-12T09:42:08.601Z,1003.76
2023-03-12T09:43:08.641Z,1003.74
2023-03-12T09:44:08.646Z,1003.69
2023-03-12T09:45:08.667Z,1003.71
2023-03-12T09:46:08.727Z,1003.72
2023-03-12T09:47:08.740Z,1003.73
2023-03-12T09:48:08.736Z,1003.73
2023-03-12T09:49:08.759Z,1003.73
2023-03-12T09:50:08.780Z,1003.72
2023-03-12T09:51:08.802Z,1003.74
2023-03-12T09:52:08.832Z,1003.74
2023-03-12T09:53:08.848Z,1003.69
2023-03-12T09:54:08.874Z,1003.70
2023-03-12T09:55:08.898Z,1003.74
2023-03-12T09:56:08.925Z,1003.72
2023-03-12T09:57:08.943Z,1003.70
2023-03-12T09:58:08.968Z,1003.70
2023-03-12T09:59:09.010Z,1003.74
2023-03-12T10:00:09.012Z,1003.70
2023-03-12T10:01:09.046Z,1003.73
2023-03-12T10:02:09.057Z,1003.75
2023-03-12T10:03:09.104Z,1003.76
2023-03-12T10:04:09.155Z,1003.76
2023-03-12T10:05:09.196Z,1003.73
2023-03-12T10:06:09.203Z,1003.73
2023-03-12T10:07:09.169Z,1003.79
2023-03-12T10:08:23.820Z,1003.76
2023-03-12T10:09:09.221Z,1003.76
2023-03-12T10:10:09.239Z,1003.75
2023-03-12T10:11:09.259Z,1003.82
2023-03-12T10:12:09.285Z,1003.76
2023-03-12T10:13:09.305Z,1003.72
2023-03-12T10:14:09.337Z,1003.70
2023-03-12T10:15:09.377Z,1003.71
2023-03-12T10:16:09.479Z,1003.71
2023-03-12T10:17:09.467Z,1003.68
2023-03-12T10:18:09.557Z,1003.66
2023-03-12T10:19:09.451Z,1003.63
2023-03-12T10:20:09.468Z,1003.65
2023-03-12T10:21:09.487Z,1003.68
2023-03-12T10:22:09.715Z,1003.69
2023-03-12T10:23:09.542Z,1003.68
2023-03-12T10:24:09.560Z,1003.77
2023-03-12T10:25:09.580Z,1003.73
2023-03-12T10:26:09.608Z,1003.70
2023-03-12T10:27:09.635Z,1003.72
2023-03-12T10:28:09.653Z,1003.68
2023-03-12T10:29:09.670Z,1003.71
2023-03-12T10:30:09.697Z,1003.70
2023-03-12T10:31:09.803Z,1003.77
2023-03-12T10:32:09.745Z,1003.68
2023-03-12T10:33:09.817Z,1003.68
2023-03-12T10:34:09.790Z,1003.72
2023-03-12T10:35:09.810Z,1003.73
2023-03-12T10:36:09.891Z,1003.74
2023-03-12T10:37:09.861Z,1003.74
2023-03-12T10:38:09.881Z,1003.74
2023-03-12T10:39:09.903Z,1003.73
2023-03-12T10:40:09.928Z,1003.77
2023-03-12T10:41:09.948Z,1003.83
2023-03-12T10:42:09.974Z,1003.76
2023-03-12T10:43:10.015Z,1003.79
2023-03-12T10:44:10.024Z,1003.86
2023-03-12T10:45:10.039Z,1003.85
2023-03-12T10:46:10.179Z,1003.81
2023-03-12T10:47:10.209Z,1003.79
2023-03-12T10:48:10.115Z,1003.75
2023-03-12T10:49:10.133Z,1003.82
2023-03-12T10:50:10.159Z,1003.79
2023-03-12T10:51:10.184Z,1003.80
2023-03-12T10:52:10.205Z,1003.81
2023-03-12T10:53:10.226Z,1003.82
2023-03-12T10:54:10.253Z,1003.83
2023-03-12T10:55:10.272Z,1003.86
2023-03-12T10:56:10.298Z,1003.86
2023-03-12T10:57:10.322Z,1003.89
2023-03-12T10:58:10.344Z,1003.88
2023-03-12T10:59:10.366Z,1003.93
2023-03-12T11:00:10.394Z,1003.91
2023-03-12T11:01:10.411Z,1003.90
2023-03-12T11:02:10.438Z,1003.95
2023-03-12T11:03:10.484Z,1003.93
2023-03-12T11:04:10.489Z,1003.91
2023-03-12T11:05:10.505Z,1003.94
2023-03-12T11:06:10.569Z,1003.87
2023-03-12T11:07:10.552Z,1003.97
2023-03-12T11:08:10.577Z,1003.98
2023-03-12T11:09:16.810Z,1003.90
2023-03-12T11:10:11.706Z,1003.92
2023-03-12T11:11:10.647Z,1003.94
2023-03-12T11:12:10.672Z,1003.99
2023-03-12T11:13:10.694Z,1004.01
2023-03-12T11:14:10.722Z,1003.98
2023-03-12T11:15:10.744Z,1003.93
2023-03-12T11:16:10.830Z,1003.94
2023-03-12T11:17:10.789Z,1003.86
2023-03-12T11:18:10.816Z,1003.87
2023-03-12T11:19:10.855Z,1003.86
2023-03-12T11:20:10.861Z,1003.79
2023-03-12T11:21:10.894Z,1003.87
2023-03-12T11:22:10.907Z,1003.85
2023-03-12T11:23:10.930Z,1003.84
2023-03-12T11:24:10.968Z,1003.84
2023-03-12T11:25:10.978Z,1003.81
2023-03-12T11:26:11.008Z,1003.80
2023-03-12T11:27:11.024Z,1003.81
2023-03-12T11:28:11.093Z,1003.79
2023-03-12T11:29:11.120Z,1003.85
2023-03-12T11:30:11.184Z,1003.85
2023-03-12T11:31:11.316Z,1003.83
2023-03-12T11:32:11.150Z,1003.81
2023-03-12T11:33:11.173Z,1003.85
2023-03-12T11:34:11.194Z,1003.81
2023-03-12T11:35:11.240Z,1003.79
2023-03-12T11:36:11.241Z,1003.78
2023-03-12T11:37:11.287Z,1003.76
2023-03-12T11:38:11.293Z,1003.79
2023-03-12T11:39:11.316Z,1003.70
2023-03-12T11:40:11.341Z,1003.76
2023-03-12T11:41:11.371Z,1003.79
2023-03-12T11:42:11.384Z,1003.80
2023-03-12T11:43:11.412Z,1003.78
2023-03-12T11:44:11.433Z,1003.77
2023-03-12T11:45:11.459Z,1003.82
2023-03-12T11:46:11.577Z,1003.84
2023-03-12T11:47:11.621Z,1003.84
2023-03-12T11:48:11.557Z,1003.87
2023-03-12T11:49:11.556Z,1003.86
2023-03-12T11:50:11.580Z,1003.88
2023-03-12T11:51:11.633Z,1003.81
2023-03-12T11:52:11.633Z,1003.79
2023-03-12T11:53:11.654Z,1003.76
2023-03-12T11:54:11.677Z,1003.74
2023-03-12T11:55:12.810Z,1003.71
2023-03-12T11:56:11.726Z,1003.74
2023-03-12T11:57:11.752Z,1003.75
2023-03-12T11:58:11.778Z,1003.73
2023-03-12T11:59:11.802Z,1003.71
2023-03-12T12:00:11.831Z,1003.65
2023-03-12T12:01:11.851Z,1003.63
2023-03-12T12:02:11.928Z,1003.63
2023-03-12T12:03:11.934Z,1003.61
2023-03-12T12:04:11.922Z,1003.64
2023-03-12T12:05:11.950Z,1003.70
2023-03-12T12:06:11.974Z,1003.68